Time;durP1;ratioP1;P1;durP2;ratioP2;P2;SDS_P1;SDS_P2;PMS_P1;PMS_P2;Temp;Humidity;BMP_temperature;BMP_pressure;BME280_temperature;BME280_humidity;BME280_pressure;Samples;Min_cycle;Max_cycle;Signal;HPM_P1;HPM_P2
2022/05/02 00:02:13;;;;;;;17.67;15.98;;;13.60;99.50;;;;;;5091691;28;20365;-76
2022/05/02 00:04:39;;;;;;;17.42;15.75;;;13.60;99.40;;;;;;5092618;28;20464;-76
2022/05/02 00:07:04;;;;;;;17.23;15.63;;;13.60;99.20;;;;;;5096339;28;20099;-76
2022/05/02 00:09:30;;;;;;;16.92;15.13;;;13.60;99.20;;;;;;5095853;28;20020;-76
2022/05/02 00:11:55;;;;;;;17.23;15.52;;;13.60;99.20;;;;;;5095346;28;20028;-76
2022/05/02 00:14:21;;;;;;;17.17;15.48;;;13.50;99.30;;;;;;5095588;28;20138;-77
2022/05/02 00:16:47;;;;;;;16.55;14.85;;;13.50;99.60;;;;;;5095420;28;20524;-77
2022/05/02 00:19:12;;;;;;;17.25;15.55;;;13.50;99.90;;;;;;5096134;28;20024;-77
2022/05/02 00:21:38;;;;;;;17.10;15.38;;;13.40;99.90;;;;;;5095418;28;20457;-77
2022/05/02 00:24:04;;;;;;;17.27;15.65;;;13.40;99.90;;;;;;5095759;28;20036;-76
2022/05/02 00:26:30;;;;;;;17.23;15.43;;;13.30;99.90;;;;;;5095912;28;20384;-77
2022/05/02 00:28:55;;;;;;;17.52;15.68;;;13.30;99.90;;;;;;5095275;28;20036;-77
2022/05/02 00:31:21;;;;;;;17.33;15.52;;;13.30;99.90;;;;;;5095797;28;20124;-77
2022/05/02 00:33:46;;;;;;;18.55;15.68;;;13.30;99.90;;;;;;5095269;28;20071;-77
2022/05/02 00:36:12;;;;;;;17.10;15.43;;;13.20;99.90;;;;;;5095744;28;20111;-77
2022/05/02 00:38:38;;;;;;;17.48;15.68;;;13.20;99.90;;;;;;5094834;28;20031;-77
2022/05/02 00:41:04;;;;;;;18.20;16.20;;;13.20;99.90;;;;;;5095986;28;20080;-77
2022/05/02 00:43:30;;;;;;;19.83;16.40;;;13.20;99.90;;;;;;5095549;28;20032;-76
2022/05/02 00:45:56;;;;;;;19.30;16.05;;;13.20;99.90;;;;;;5094769;28;20158;-76
2022/05/02 00:48:21;;;;;;;18.55;16.23;;;13.20;99.90;;;;;;5095467;28;20042;-75
2022/05/02 00:50:47;;;;;;;19.42;17.15;;;13.20;99.90;;;;;;5094961;28;20024;-76
2022/05/02 00:53:19;;;;;;;18.15;16.27;;;13.10;99.90;;;;;;5095647;28;20028;-75
2022/05/02 00:55:45;;;;;;;18.20;16.40;;;13.10;99.90;;;;;;5094786;28;20102;-76
2022/05/02 00:58:14;;;;;;;17.85;16.05;;;13.10;99.90;;;;;;5095376;28;20032;-76
2022/05/02 01:00:40;;;;;;;19.25;16.48;;;13.10;99.90;;;;;;5094432;28;20046;-77
2022/05/02 01:03:08;;;;;;;18.67;16.67;;;13.10;99.90;;;;;;5094579;28;20044;-76
2022/05/02 01:08:33;;;;;;;17.85;16.13;;;13.00;99.90;;;;;;5094870;28;20474;-76
2022/05/02 01:11:00;;;;;;;19.33;17.40;;;13.10;99.90;;;;;;5094397;28;20059;-76
2022/05/02 01:16:28;;;;;;;18.75;16.73;;;13.00;99.90;;;;;;5094729;28;20092;-76
2022/05/02 01:18:59;;;;;;;19.40;17.05;;;13.00;99.90;;;;;;5094028;28;20357;-76
2022/05/02 01:21:29;;;;;;;18.20;16.45;;;13.00;99.90;;;;;;5094678;28;20106;-76
2022/05/02 01:24:00;;;;;;;19.05;16.38;;;13.10;99.90;;;;;;5094257;28;20036;-76
2022/05/02 01:26:26;;;;;;;21.00;17.13;;;13.10;99.90;;;;;;5094501;28;20039;-76
2022/05/02 01:29:01;;;;;;;17.27;15.57;;;13.10;99.90;;;;;;5093994;28;20023;-76
2022/05/02 01:31:28;;;;;;;17.48;15.75;;;13.10;99.90;;;;;;5094687;28;20077;-76
2022/05/02 01:33:54;;;;;;;18.88;16.98;;;13.10;99.90;;;;;;5093902;28;20034;-77
2022/05/02 01:36:21;;;;;;;18.13;16.33;;;13.20;99.90;;;;;;5094047;28;20024;-77
2022/05/02 01:38:47;;;;;;;19.67;17.10;;;13.10;99.90;;;;;;5093852;28;20104;-77
2022/05/02 01:41:13;;;;;;;18.05;16.15;;;13.10;99.90;;;;;;5094340;28;20024;-76
2022/05/02 01:43:39;;;;;;;16.90;15.25;;;13.20;99.90;;;;;;5094305;28;20039;-76
2022/05/02 01:46:07;;;;;;;18.38;16.48;;;13.10;99.90;;;;;;5093840;28;20028;-77
2022/05/02 01:48:33;;;;;;;18.15;16.30;;;13.10;99.90;;;;;;5094200;28;20016;-77
2022/05/02 01:50:59;;;;;;;17.52;15.75;;;13.10;99.90;;;;;;5093610;28;20434;-76
2022/05/02 01:53:26;;;;;;;18.08;16.00;;;13.10;99.90;;;;;;5094551;28;20110;-76
2022/05/02 01:55:52;;;;;;;17.55;15.73;;;13.10;99.90;;;;;;5109161;28;20161;-75
2022/05/02 01:58:18;;;;;;;19.83;16.17;;;13.10;99.90;;;;;;5093155;28;20103;-77
2022/05/02 02:00:44;;;;;;;17.63;15.93;;;13.10;99.90;;;;;;5097362;28;20098;-76
2022/05/02 02:03:10;;;;;;;18.50;15.90;;;13.00;99.90;;;;;;5094744;28;20465;-76
2022/05/02 02:05:51;;;;;;;17.73;15.82;;;13.00;99.90;;;;;;5093443;28;20020;-76
2022/05/02 02:08:28;;;;;;;20.75;16.10;;;13.00;99.90;;;;;;5093829;28;20119;-76
2022/05/02 02:10:59;;;;;;;17.77;15.98;;;13.00;99.90;;;;;;5093525;28;20444;-75
2022/05/02 02:13:25;;;;;;;17.95;15.02;;;13.00;99.90;;;;;;5093925;28;20024;-77
2022/05/02 02:15:51;;;;;;;17.33;15.45;;;13.00;99.90;;;;;;5092140;28;20140;-77
2022/05/02 02:18:17;;;;;;;17.98;16.13;;;12.90;99.90;;;;;;5109348;28;20024;-76
2022/05/02 02:20:44;;;;;;;17.60;15.52;;;12.90;99.90;;;;;;5092984;28;20024;-80
2022/05/02 02:23:11;;;;;;;16.92;15.20;;;12.90;99.90;;;;;;5093620;28;20036;-77
2022/05/02 02:25:37;;;;;;;16.85;14.95;;;12.90;99.90;;;;;;5093607;28;20078;-76
2022/05/02 02:28:04;;;;;;;16.55;14.82;;;12.80;99.90;;;;;;5092179;28;20491;-76
2022/05/02 02:30:30;;;;;;;18.25;15.70;;;12.80;99.90;;;;;;5093423;28;20031;-76
2022/05/02 02:32:57;;;;;;;17.08;15.23;;;12.80;99.90;;;;;;5092776;28;20102;-76
2022/05/02 02:35:23;;;;;;;23.63;14.75;;;12.80;99.90;;;;;;5093402;28;20108;-76
2022/05/02 02:37:49;;;;;;;17.73;15.95;;;12.80;99.90;;;;;;5092597;28;20047;-77
2022/05/02 02:40:15;;;;;;;17.40;15.60;;;12.70;99.90;;;;;;5092043;28;20024;-76
2022/05/02 02:42:41;;;;;;;17.77;15.93;;;12.80;99.90;;;;;;5093209;28;20093;-76
2022/05/02 02:45:07;;;;;;;18.33;15.43;;;12.70;99.90;;;;;;5108153;28;20028;-76
2022/05/02 02:47:33;;;;;;;16.25;14.75;;;12.70;99.90;;;;;;5093027;28;20024;-77
2022/05/02 02:49:59;;;;;;;17.73;15.88;;;12.70;99.90;;;;;;5092500;28;20471;-76
2022/05/02 02:52:24;;;;;;;17.27;15.48;;;12.70;99.90;;;;;;5093008;28;20028;-76
2022/05/02 02:54:50;;;;;;;18.35;16.40;;;12.80;99.90;;;;;;5092733;28;20039;-76
2022/05/02 02:57:15;;;;;;;18.30;15.77;;;12.80;99.90;;;;;;5092738;28;20028;-76
2022/05/02 02:59:41;;;;;;;18.08;16.15;;;12.70;99.90;;;;;;5092927;28;20495;-76
2022/05/02 03:02:07;;;;;;;17.83;16.10;;;12.70;99.90;;;;;;5092337;28;20547;-76
2022/05/02 03:07:19;;;;;;;17.40;15.70;;;12.70;99.90;;;;;;5092957;28;20537;-76
2022/05/02 03:09:45;;;;;;;18.60;16.52;;;12.70;99.90;;;;;;5092750;28;20028;-76
2022/05/02 03:12:11;;;;;;;19.75;16.98;;;12.70;99.90;;;;;;5092005;28;20024;-77
2022/05/02 03:14:36;;;;;;;17.08;15.35;;;12.60;99.90;;;;;;5091807;28;20040;-76
2022/05/02 03:17:02;;;;;;;18.10;16.23;;;12.70;99.90;;;;;;5092088;28;20510;-76
2022/05/02 03:19:28;;;;;;;17.08;15.18;;;12.60;99.90;;;;;;5092593;28;20051;-76
2022/05/02 03:21:53;;;;;;;17.75;15.82;;;12.60;99.90;;;;;;5091645;28;20024;-76
2022/05/02 03:24:19;;;;;;;17.23;15.40;;;12.60;99.90;;;;;;5092210;28;20330;-76
2022/05/02 03:26:45;;;;;;;18.40;16.40;;;12.60;99.90;;;;;;5091927;28;20024;-76
2022/05/02 03:29:10;;;;;;;18.77;16.92;;;12.60;99.90;;;;;;5091727;28;20058;-75
2022/05/02 03:31:36;;;;;;;16.80;15.00;;;12.60;99.90;;;;;;5092205;28;20058;-75
2022/05/02 03:34:02;;;;;;;17.27;15.48;;;12.70;99.90;;;;;;5091746;28;20111;-75
2022/05/02 03:36:27;;;;;;;17.30;15.70;;;12.70;99.90;;;;;;5092005;28;20107;-76
2022/05/02 03:38:53;;;;;;;17.58;15.73;;;12.70;99.90;;;;;;5107011;28;20020;-76
2022/05/02 03:41:19;;;;;;;17.23;15.50;;;12.60;99.90;;;;;;5092292;28;20078;-76
2022/05/02 03:43:44;;;;;;;17.75;15.93;;;12.70;99.90;;;;;;5091899;28;20036;-76
2022/05/02 03:46:10;;;;;;;17.05;15.25;;;12.60;99.90;;;;;;5091143;28;20024;-76
2022/05/02 03:48:36;;;;;;;18.70;15.27;;;12.60;99.90;;;;;;5107864;28;20027;-75
2022/05/02 03:51:01;;;;;;;17.73;15.95;;;12.60;99.90;;;;;;5091842;28;20035;-76
2022/05/02 03:53:27;;;;;;;18.27;16.38;;;12.70;99.90;;;;;;5092184;28;20039;-76
2022/05/02 03:55:53;;;;;;;18.05;16.17;;;12.70;99.90;;;;;;5091629;28;20020;-76
2022/05/02 03:58:19;;;;;;;19.80;15.88;;;12.70;99.90;;;;;;5107685;28;20027;-76
2022/05/02 04:00:44;;;;;;;17.35;15.60;;;12.70;99.90;;;;;;5091693;28;20103;-76
2022/05/02 04:03:10;;;;;;;18.08;16.13;;;12.70;99.90;;;;;;5091447;28;20039;-76
2022/05/02 04:05:36;;;;;;;17.85;15.95;;;12.80;99.90;;;;;;5091705;28;20068;-76
2022/05/02 04:08:01;;;;;;;17.95;16.15;;;12.70;99.90;;;;;;5091396;28;20024;-75
2022/05/02 04:10:27;;;;;;;20.05;15.73;;;12.80;99.90;;;;;;5091875;28;20060;-76
2022/05/02 04:12:53;;;;;;;17.90;15.93;;;12.80;99.90;;;;;;5091619;28;20024;-76
2022/05/02 04:15:18;;;;;;;18.20;16.40;;;12.80;99.90;;;;;;5092080;28;20048;-76
2022/05/02 04:17:44;;;;;;;19.15;15.77;;;12.80;99.90;;;;;;5092385;28;20056;-75
2022/05/02 04:20:10;;;;;;;18.67;16.75;;;12.90;99.90;;;;;;5091708;28;20420;-76
2022/05/02 04:22:37;;;;;;;18.50;16.38;;;12.90;99.90;;;;;;5091506;28;20088;-76
2022/05/02 04:25:04;;;;;;;17.52;15.85;;;13.00;99.90;;;;;;5091301;28;20024;-76
2022/05/02 04:27:30;;;;;;;18.55;15.85;;;13.00;99.90;;;;;;5091592;28;20491;-76
2022/05/02 04:29:55;;;;;;;17.35;15.40;;;13.00;99.90;;;;;;5090921;28;20032;-76
2022/05/02 04:32:21;;;;;;;17.38;15.15;;;13.10;99.90;;;;;;5091826;28;20119;-76
2022/05/02 04:34:47;;;;;;;19.08;15.23;;;13.10;99.90;;;;;;5092086;28;20039;-76
2022/05/02 04:37:12;;;;;;;17.52;15.75;;;13.10;99.90;;;;;;5090798;28;20341;-76
2022/05/02 04:39:38;;;;;;;17.58;15.75;;;13.20;99.90;;;;;;5092818;28;20070;-76
2022/05/02 04:42:04;;;;;;;17.25;15.48;;;13.20;99.90;;;;;;5102737;28;20024;-76
2022/05/02 04:44:32;;;;;;;19.27;15.38;;;13.30;99.90;;;;;;5102422;28;20396;-76
2022/05/02 04:46:58;;;;;;;16.98;15.10;;;13.30;99.90;;;;;;5096099;28;20020;-76
2022/05/02 04:49:24;;;;;;;16.05;14.32;;;13.40;99.90;;;;;;5091618;28;20030;-75
2022/05/02 04:51:49;;;;;;;16.63;14.55;;;13.40;99.60;;;;;;5094124;28;20051;-75
2022/05/02 04:54:15;;;;;;;16.23;14.63;;;13.40;99.20;;;;;;5094389;28;20031;-74
2022/05/02 04:56:41;;;;;;;15.18;13.57;;;13.40;99.10;;;;;;5094989;28;20027;-75
2022/05/02 04:59:07;;;;;;;15.35;13.77;;;13.50;99.10;;;;;;5094661;28;20024;-74
2022/05/02 05:01:32;;;;;;;16.77;14.75;;;13.50;99.30;;;;;;5095472;28;20024;-74
2022/05/02 05:03:58;;;;;;;16.50;13.98;;;13.50;99.10;;;;;;5094591;28;20508;-76
2022/05/02 05:06:23;;;;;;;15.27;13.63;;;13.60;99.70;;;;;;5095271;28;20028;-76
2022/05/02 05:08:49;;;;;;;17.10;13.90;;;13.60;99.40;;;;;;5095444;28;20024;-75
2022/05/02 05:11:34;;;;;;;16.42;13.82;;;13.60;98.80;;;;;;5110128;28;20731;-75
2022/05/02 05:17:01;;;;;;;13.23;11.82;;;13.90;98.30;;;;;;5094036;28;20081;-75
2022/05/02 05:19:39;;;;;;;14.32;12.82;;;14.00;98.00;;;;;;5094022;28;20020;-75
2022/05/02 05:22:20;;;;;;;13.30;11.82;;;14.10;96.70;;;;;;5093858;28;20074;-76
2022/05/02 05:25:17;;;;;;;13.30;11.90;;;14.20;96.40;;;;;;5094592;28;20465;-76
2022/05/02 05:28:15;;;;;;;14.68;11.95;;;14.40;95.80;;;;;;5094532;28;20051;-76
2022/05/02 05:30:44;;;;;;;11.98;10.85;;;14.70;95.80;;;;;;5094729;28;20112;-76
2022/05/02 05:33:22;;;;;;;13.10;11.23;;;14.90;94.20;;;;;;5092431;28;20032;-77
2022/05/02 05:35:53;;;;;;;13.05;10.80;;;15.20;92.70;;;;;;5094171;28;20076;-77
2022/05/02 05:38:34;;;;;;;12.02;10.82;;;15.40;92.10;;;;;;5094007;28;20036;-77
2022/05/02 05:41:14;;;;;;;15.27;11.57;;;15.90;91.60;;;;;;5093299;28;20024;-77
2022/05/02 05:44:23;;;;;;;17.15;11.18;;;16.30;88.90;;;;;;5094099;28;20043;-77
2022/05/02 05:47:18;;;;;;;17.38;11.98;;;16.90;86.80;;;;;;5094259;28;20062;-76
2022/05/02 05:50:02;;;;;;;14.23;11.23;;;18.20;83.90;;;;;;5094004;28;20085;-77
2022/05/02 05:52:36;;;;;;;12.55;11.13;;;19.70;71.80;;;;;;5094251;28;20028;-76
2022/05/02 05:55:08;;;;;;;12.57;10.80;;;20.80;65.80;;;;;;5093592;28;20020;-76
2022/05/02 05:57:59;;;;;;;13.23;10.45;;;21.70;59.70;;;;;;5094027;28;20043;-77
2022/05/02 06:00:29;;;;;;;15.00;10.77;;;22.40;56.70;;;;;;5093603;28;20362;-77
2022/05/02 06:03:07;;;;;;;14.45;9.63;;;22.60;55.70;;;;;;5093024;28;20101;-78
2022/05/02 06:05:45;;;;;;;10.45;9.45;;;23.00;54.50;;;;;;5093551;28;20027;-78
2022/05/02 06:08:23;;;;;;;11.32;10.10;;;23.70;52.00;;;;;;5093273;28;20028;-77
2022/05/02 06:10:51;;;;;;;10.70;9.57;;;24.10;50.90;;;;;;5093351;28;20016;-77
2022/05/02 06:13:18;;;;;;;9.52;8.57;;;24.30;49.10;;;;;;5092959;28;20132;-78
2022/05/02 06:18:37;;;;;;;10.88;9.05;;;24.10;48.00;;;;;;5093750;28;20035;-77
2022/05/02 06:21:05;;;;;;;9.32;8.43;;;23.90;49.00;;;;;;5092662;28;20561;-78
2022/05/02 06:23:39;;;;;;;8.48;7.68;;;23.60;48.00;;;;;;5093411;28;20028;-77
2022/05/02 06:26:06;;;;;;;7.57;6.78;;;23.10;48.70;;;;;;5093091;28;20031;-77
2022/05/02 06:28:39;;;;;;;8.10;7.30;;;22.80;49.40;;;;;;5093129;28;20568;-76
2022/05/02 06:31:12;;;;;;;8.32;7.35;;;22.40;49.80;;;;;;5092634;28;20051;-77
2022/05/02 06:33:39;;;;;;;8.43;7.57;;;22.00;51.10;;;;;;5093570;28;20028;-76
2022/05/02 06:36:05;;;;;;;8.55;7.35;;;21.90;52.40;;;;;;5092613;28;20024;-76
2022/05/02 06:38:43;;;;;;;8.48;7.70;;;21.80;52.30;;;;;;5093107;28;20050;-76
2022/05/02 06:41:28;;;;;;;9.65;8.63;;;21.70;52.40;;;;;;5092485;28;20053;-77
2022/05/02 06:44:02;;;;;;;12.10;8.50;;;21.80;53.30;;;;;;5093228;28;20354;-77
2022/05/02 06:46:41;;;;;;;8.93;8.10;;;22.00;52.30;;;;;;5093040;28;20060;-77
2022/05/02 06:49:12;;;;;;;9.43;8.52;;;22.40;51.90;;;;;;5092443;28;20028;-77
2022/05/02 06:51:41;;;;;;;9.48;8.50;;;23.30;49.90;;;;;;5092990;28;20036;-77
2022/05/02 06:54:30;;;;;;;13.57;8.93;;;24.00;47.10;;;;;;5092075;28;20034;-78
2022/05/02 06:57:07;;;;;;;11.00;9.23;;;23.90;45.70;;;;;;5092639;28;20028;-77
2022/05/02 07:00:07;;;;;;;10.80;9.32;;;23.60;46.00;;;;;;5092875;28;20053;-78
2022/05/02 07:02:50;;;;;;;10.65;9.65;;;23.40;45.70;;;;;;5090460;28;20036;-77
2022/05/02 07:05:30;;;;;;;13.07;9.70;;;23.40;46.40;;;;;;5091811;28;20364;-77
2022/05/02 07:08:04;;;;;;;12.90;9.25;;;23.40;46.00;;;;;;5092677;28;20020;-76
2022/05/02 07:10:37;;;;;;;11.82;10.73;;;23.60;46.60;;;;;;5092850;28;20020;-76
2022/05/02 07:13:06;;;;;;;14.82;10.75;;;23.70;46.30;;;;;;5092230;28;20103;-77
2022/05/02 07:15:45;;;;;;;15.90;10.00;;;24.00;45.00;;;;;;5092631;28;20169;-77
2022/05/02 07:18:37;;;;;;;11.63;10.15;;;23.90;45.00;;;;;;5092013;28;20083;-77
2022/05/02 07:21:25;;;;;;;12.05;9.85;;;24.10;44.10;;;;;;5092815;28;20036;-76
2022/05/02 07:23:57;;;;;;;10.98;9.85;;;24.10;43.80;;;;;;5092117;28;20028;-76
2022/05/02 07:26:24;;;;;;;13.77;10.40;;;24.30;43.20;;;;;;5091565;28;20372;-77
2022/05/02 07:28:52;;;;;;;11.82;10.48;;;24.50;43.30;;;;;;5090644;28;20070;-77
2022/05/02 07:31:23;;;;;;;12.45;9.70;;;24.80;42.60;;;;;;5091715;28;20024;-76
2022/05/02 07:33:51;;;;;;;13.35;9.98;;;25.00;42.30;;;;;;5091965;28;20160;-77
2022/05/02 07:36:19;;;;;;;13.95;9.55;;;25.20;41.50;;;;;;5107188;28;20045;-77
2022/05/02 07:38:53;;;;;;;11.95;9.63;;;25.40;41.30;;;;;;5091883;28;20028;-76
2022/05/02 07:41:27;;;;;;;11.43;9.75;;;25.50;41.40;;;;;;5091644;28;20028;-77
2022/05/02 07:44:13;;;;;;;11.05;8.63;;;25.90;42.50;;;;;;5092047;28;20100;-77
2022/05/02 07:46:45;;;;;;;10.70;8.40;;;25.90;40.00;;;;;;5092299;28;20115;-76
2022/05/02 07:49:14;;;;;;;10.73;8.95;;;26.10;39.60;;;;;;5091295;28;20028;-77
2022/05/02 07:51:50;;;;;;;13.48;8.45;;;26.30;38.80;;;;;;5091856;28;20035;-76
2022/05/02 07:54:21;;;;;;;9.48;8.57;;;26.60;38.70;;;;;;5091562;28;20035;-76
2022/05/02 07:56:49;;;;;;;12.82;8.10;;;27.00;38.20;;;;;;5091642;28;20028;-76
2022/05/02 07:59:16;;;;;;;8.40;7.45;;;27.40;38.00;;;;;;5091135;28;20020;-77
2022/05/02 08:01:43;;;;;;;10.88;7.82;;;27.60;37.30;;;;;;5092143;28;20028;-77
2022/05/02 08:04:13;;;;;;;9.90;8.38;;;27.80;36.40;;;;;;5091049;28;20039;-77
2022/05/02 08:06:38;;;;;;;12.65;7.72;;;27.90;36.90;;;;;;5091732;28;20032;-77
2022/05/02 08:09:29;;;;;;;9.15;8.25;;;27.60;36.30;;;;;;5091326;28;20026;-77
2022/05/02 08:12:13;;;;;;;12.18;7.97;;;27.30;36.60;;;;;;5107673;28;20385;-78
2022/05/02 08:14:51;;;;;;;11.65;8.43;;;26.90;36.30;;;;;;5091494;28;20484;-78
2022/05/02 08:17:36;;;;;;;9.35;8.27;;;26.70;36.70;;;;;;5091178;28;20424;-77
2022/05/02 08:20:23;;;;;;;8.85;7.55;;;26.40;37.40;;;;;;5091911;28;20036;-77
2022/05/02 08:29:24;;;;;;;8.07;7.28;;;25.90;38.30;;;;;;5095533;28;20539;-77
2022/05/02 08:32:13;;;;;;;10.23;8.50;;;25.90;38.40;;;;;;5095797;28;20024;-77
2022/05/02 08:34:39;;;;;;;10.05;7.68;;;25.90;40.00;;;;;;5096246;28;20028;-77
2022/05/02 08:37:27;;;;;;;10.23;7.55;;;25.90;38.50;;;;;;5095558;28;20372;-76
2022/05/02 08:39:58;;;;;;;12.35;7.43;;;25.70;39.50;;;;;;5095725;28;20028;-77
2022/05/02 08:42:33;;;;;;;12.45;7.75;;;25.70;39.20;;;;;;5095146;28;20028;-78
2022/05/02 08:45:10;;;;;;;10.18;7.20;;;25.60;37.80;;;;;;5095480;28;20032;-77
2022/05/02 08:47:58;;;;;;;8.02;7.22;;;25.40;38.40;;;;;;5095513;28;20085;-77
2022/05/02 08:50:36;;;;;;;9.23;7.63;;;25.30;39.00;;;;;;5094938;28;20432;-78
2022/05/02 08:53:01;;;;;;;10.25;7.72;;;25.20;38.70;;;;;;5095009;28;20031;-77
2022/05/02 08:55:46;;;;;;;8.90;7.93;;;25.00;39.20;;;;;;5094304;28;20035;-76
2022/05/02 08:58:20;;;;;;;9.43;8.15;;;24.90;39.30;;;;;;5094677;28;20168;-79
2022/05/02 09:01:11;;;;;;;9.50;7.53;;;24.70;40.00;;;;;;5095201;28;20099;-77
2022/05/02 09:04:04;;;;;;;12.43;7.10;;;24.70;39.60;;;;;;5094877;28;20056;-77
2022/05/02 09:06:42;;;;;;;9.45;6.50;;;24.60;39.50;;;;;;5094412;28;20491;-78
2022/05/02 09:09:43;;;;;;;13.77;7.00;;;24.60;40.30;;;;;;5094697;28;20465;-77
2022/05/02 09:12:35;;;;;;;9.65;7.13;;;24.70;40.70;;;;;;5052358;28;20037;-77
2022/05/02 09:15:14;;;;;;;9.05;6.60;;;24.70;40.20;;;;;;5094105;28;20062;-76
2022/05/02 09:17:46;;;;;;;7.68;6.50;;;24.70;40.40;;;;;;5094882;28;20020;-78
2022/05/02 09:20:28;;;;;;;8.63;6.63;;;24.70;39.50;;;;;;5094936;28;20168;-78
2022/05/02 09:23:02;;;;;;;7.28;6.50;;;24.70;39.80;;;;;;5094872;28;20035;-77
2022/05/02 09:25:43;;;;;;;7.97;6.68;;;24.70;39.00;;;;;;5094051;28;20032;-76
2022/05/02 09:28:21;;;;;;;8.77;6.95;;;24.60;40.20;;;;;;5094481;28;20028;-78
2022/05/02 09:34:19;;;;;;;10.48;6.80;;;24.70;39.30;;;;;;5094493;28;20027;-77
2022/05/02 09:37:21;;;;;;;8.68;7.88;;;24.60;39.60;;;;;;5094404;28;20020;-77
2022/05/02 09:39:52;;;;;;;7.93;6.68;;;24.60;40.40;;;;;;5085650;28;20043;-77
2022/05/02 09:42:45;;;;;;;7.45;6.57;;;24.70;41.70;;;;;;5093741;28;20024;-78
2022/05/02 09:51:37;;;;;;;10.27;7.13;;;24.90;40.00;;;;;;5093594;28;20082;-77
2022/05/02 09:56:37;;;;;;;9.00;6.88;;;24.90;42.40;;;;;;5094144;28;20338;-77
2022/05/02 09:57:17;;;;;;;9.63;7.15;;;25.00;41.70;;;;;;5093709;28;20032;-77
2022/05/02 10:02:45;;;;;;;9.45;7.18;;;25.00;40.30;;;;;;5093107;28;20327;-77
2022/05/02 10:05:19;;;;;;;8.40;6.55;;;24.80;41.20;;;;;;5094010;28;20051;-76
2022/05/02 10:08:08;;;;;;;7.80;6.45;;;24.80;41.60;;;;;;5092541;28;20177;-76
2022/05/02 10:11:13;;;;;;;8.63;6.10;;;24.90;43.70;;;;;;5054653;28;20055;-77
2022/05/02 10:13:41;;;;;;;9.27;5.93;;;24.90;40.00;;;;;;5078199;28;20051;-77
2022/05/02 10:16:36;;;;;;;11.48;7.18;;;24.90;39.60;;;;;;5093813;28;20035;-77
2022/05/02 10:19:26;;;;;;;9.43;4.90;;;25.00;40.70;;;;;;5094011;28;20032;-77
2022/05/02 10:22:14;;;;;;;7.50;5.05;;;24.90;37.80;;;;;;5093413;28;20477;-78
2022/05/02 10:24:57;;;;;;;5.47;4.40;;;24.80;37.20;;;;;;5091715;28;20028;-78
2022/05/02 10:27:40;;;;;;;8.45;5.22;;;24.70;37.60;;;;;;5092984;28;20401;-78
2022/05/02 10:30:12;;;;;;;11.05;5.55;;;24.80;39.00;;;;;;5093508;28;20318;-77
2022/05/02 10:32:50;;;;;;;9.70;5.63;;;24.90;39.00;;;;;;5092611;28;20107;-78
2022/05/02 10:35:18;;;;;;;5.35;4.38;;;25.00;39.70;;;;;;5092998;28;20032;-76
2022/05/02 10:37:59;;;;;;;6.65;4.47;;;25.00;37.60;;;;;;5093257;28;20027;-77
2022/05/02 10:40:40;;;;;;;6.43;5.03;;;25.00;37.90;;;;;;5092588;28;20416;-78
2022/05/02 10:43:08;;;;;;;8.35;5.03;;;24.90;38.10;;;;;;5093384;28;20035;-77
2022/05/02 10:45:37;;;;;;;5.53;5.03;;;24.90;38.10;;;;;;5092615;28;20035;-77
2022/05/02 10:48:22;;;;;;;6.97;4.82;;;24.80;38.30;;;;;;5092617;28;20115;-77
2022/05/02 10:50:58;;;;;;;10.18;5.45;;;24.80;39.40;;;;;;5092752;28;20382;-77
2022/05/02 10:53:27;;;;;;;8.27;4.97;;;24.90;39.10;;;;;;5092565;28;20024;-76
2022/05/02 10:56:32;;;;;;;6.35;3.58;;;24.80;38.10;;;;;;5092777;28;20019;-76
2022/05/02 10:59:00;;;;;;;7.85;3.75;;;24.70;37.80;;;;;;5092925;28;20106;-75
2022/05/02 11:01:41;;;;;;;4.72;3.50;;;24.70;36.40;;;;;;5092202;28;20031;-77
2022/05/02 11:04:18;;;;;;;5.70;3.97;;;24.60;37.20;;;;;;5092555;28;20024;-78
2022/05/02 11:07:13;;;;;;;6.32;4.47;;;24.60;38.10;;;;;;5091947;28;20028;-77
2022/05/02 11:09:50;;;;;;;8.18;4.30;;;24.60;39.00;;;;;;5107667;28;20024;-77
2022/05/02 11:12:21;;;;;;;5.63;4.32;;;24.60;39.30;;;;;;5092769;28;20103;-76
2022/05/02 11:14:58;;;;;;;7.65;4.75;;;24.50;38.20;;;;;;5091152;28;20618;-77
2022/05/02 11:17:23;;;;;;;7.10;3.88;;;24.40;38.50;;;;;;5107868;28;20027;-76
2022/05/02 11:22:55;;;;;;;5.43;4.25;;;24.40;39.40;;;;;;5092388;28;20085;-76
2022/05/02 11:25:21;;;;;;;7.88;4.30;;;24.40;37.60;;;;;;5092110;28;20040;-76
2022/05/02 11:28:07;;;;;;;6.75;4.50;;;24.30;38.30;;;;;;5092423;28;20398;-76
2022/05/02 11:30:45;;;;;;;5.43;4.13;;;24.30;38.20;;;;;;5091610;28;20030;-77
2022/05/02 11:33:22;;;;;;;9.18;5.07;;;24.20;38.90;;;;;;5092624;28;20063;-76
2022/05/02 11:35:50;;;;;;;4.88;3.88;;;24.20;38.90;;;;;;5092406;28;20081;-76
2022/05/02 11:38:49;;;;;;;6.55;5.07;;;24.20;39.30;;;;;;5092232;28;20503;-77
2022/05/02 11:41:18;;;;;;;4.18;3.53;;;24.10;39.10;;;;;;5092220;28;20024;-77
2022/05/02 11:43:45;;;;;;;3.97;3.50;;;24.20;39.20;;;;;;5091267;28;20484;-76
2022/05/02 11:46:20;;;;;;;10.60;3.30;;;24.10;37.20;;;;;;5092137;28;20036;-77
2022/05/02 11:49:02;;;;;;;5.90;4.75;;;24.10;36.60;;;;;;5090439;28;20028;-77
2022/05/02 11:51:43;;;;;;;7.03;4.68;;;24.10;38.10;;;;;;5091719;28;20070;-78
2022/05/02 11:54:16;;;;;;;7.13;5.40;;;24.10;40.00;;;;;;5092062;28;20361;-77
2022/05/02 11:57:03;;;;;;;8.77;5.75;;;24.10;39.70;;;;;;5107281;28;20032;-77
2022/05/02 11:59:45;;;;;;;7.28;5.40;;;24.00;38.40;;;;;;5091007;28;20016;-77
2022/05/02 12:02:30;;;;;;;7.45;4.80;;;23.90;39.20;;;;;;5091712;28;20530;-77
2022/05/02 12:04:57;;;;;;;5.80;5.30;;;23.80;38.90;;;;;;5091737;28;20036;-77
2022/05/02 12:07:31;;;;;;;10.63;5.78;;;23.80;39.60;;;;;;5090742;28;20360;-77
2022/05/02 12:10:06;;;;;;;6.18;5.57;;;23.70;39.60;;;;;;5092045;28;20052;-76
2022/05/02 12:12:32;;;;;;;6.22;5.47;;;23.60;39.90;;;;;;5091297;28;20050;-77
2022/05/02 12:15:13;;;;;;;7.15;5.00;;;23.50;39.90;;;;;;5092000;28;20051;-76
2022/05/02 12:17:55;;;;;;;5.20;4.70;;;23.40;40.20;;;;;;5091155;28;20059;-77
2022/05/02 12:20:26;;;;;;;5.90;4.35;;;23.30;40.40;;;;;;5091931;28;20028;-77
2022/05/02 12:23:07;;;;;;;7.18;4.63;;;23.30;41.00;;;;;;5091489;28;20119;-76
2022/05/02 12:25:34;;;;;;;4.57;4.07;;;23.20;40.90;;;;;;5091147;28;20028;-76
2022/05/02 12:28:03;;;;;;;7.30;4.65;;;23.20;39.70;;;;;;5091739;28;20420;-76
2022/05/02 12:30:31;;;;;;;3.40;2.92;;;23.10;39.60;;;;;;5091117;28;20354;-76
2022/05/02 12:33:03;;;;;;;6.85;3.75;;;23.00;39.00;;;;;;5091819;28;20480;-77
2022/05/02 12:35:40;;;;;;;3.63;2.92;;;22.90;39.00;;;;;;5091066;28;20024;-77
2022/05/02 12:38:17;;;;;;;3.75;2.95;;;22.90;39.00;;;;;;5091828;28;20143;-77
2022/05/02 12:40:52;;;;;;;4.35;3.17;;;22.80;38.40;;;;;;5091233;28;20025;-79
2022/05/02 12:43:29;;;;;;;4.78;3.00;;;22.80;38.10;;;;;;5091604;28;20036;-77
2022/05/02 12:45:56;;;;;;;5.28;3.03;;;22.70;38.00;;;;;;5091691;28;20444;-77
2022/05/02 12:48:23;;;;;;;4.93;3.50;;;22.70;38.60;;;;;;5091582;28;20066;-76
2022/05/02 12:50:51;;;;;;;4.40;3.58;;;22.70;38.70;;;;;;5091101;28;20413;-77
2022/05/02 12:56:09;;;;;;;6.50;3.67;;;22.70;39.60;;;;;;5091586;28;20058;-77
2022/05/02 13:01:23;;;;;;;5.55;3.72;;;22.70;39.70;;;;;;5091605;28;20035;-78
2022/05/02 13:04:00;;;;;;;7.38;3.90;;;22.60;39.70;;;;;;5089398;28;20066;-76
2022/05/02 13:06:27;;;;;;;6.70;3.50;;;22.60;40.00;;;;;;5091435;28;20051;-77
2022/05/02 13:09:14;;;;;;;5.90;3.42;;;22.60;39.70;;;;;;5090809;28;20066;-77
2022/05/02 13:11:41;;;;;;;8.50;3.83;;;22.50;39.40;;;;;;5092068;28;20447;-77
2022/05/02 13:14:07;;;;;;;4.25;3.70;;;22.50;39.90;;;;;;5094933;28;20056;-77
2022/05/02 13:16:41;;;;;;;8.40;3.80;;;22.40;40.10;;;;;;5094499;28;20100;-77
2022/05/02 13:19:07;;;;;;;6.90;3.55;;;22.40;40.20;;;;;;5095122;28;20063;-77
2022/05/02 13:21:34;;;;;;;4.03;3.33;;;22.30;40.40;;;;;;5094345;28;20107;-77
2022/05/02 13:24:10;;;;;;;5.28;3.50;;;22.30;40.60;;;;;;5094799;28;20063;-77
2022/05/02 13:27:03;;;;;;;5.18;3.50;;;22.30;40.60;;;;;;5094313;28;20385;-78
2022/05/02 13:29:56;;;;;;;7.60;3.22;;;22.20;40.40;;;;;;5110641;28;20438;-77
2022/05/02 13:32:25;;;;;;;9.15;3.50;;;22.20;40.50;;;;;;5094770;28;20135;-76
2022/05/02 13:35:11;;;;;;;7.28;3.22;;;22.20;40.30;;;;;;5094113;28;20067;-76
2022/05/02 13:37:43;;;;;;;6.93;3.13;;;22.20;40.70;;;;;;5093695;28;20016;-77
2022/05/02 13:40:22;;;;;;;8.48;3.20;;;22.20;40.50;;;;;;5094562;28;20020;-77
2022/05/02 13:42:50;;;;;;;4.57;3.00;;;22.20;40.50;;;;;;5093450;28;20472;-77
2022/05/02 13:45:38;;;;;;;5.18;2.47;;;22.20;40.50;;;;;;5094357;28;20024;-77
2022/05/02 13:48:09;;;;;;;5.60;2.47;;;22.20;40.30;;;;;;5094485;28;20077;-77